Plainfield, IA

7:26 AM CDT on August 31, 2015 (GMT -0500)
Wartburg College Observatory | | Change Station
CLOSE
Current Station
Personal Weather Station
Location: Waverly, IA
Elevation: 928 ft
Nearby Weather Stations
Active Advisory: Special Statement

Elev 928 ft 42.73 °N, 92.49 °W | Updated 10 seconds ago

Fog
Fog
63.0 °F
Feels Like 63.0 °F
N
6.0
Wind Variable Wind from SE
Gusts 6.0 mph

Today
High -- | Low -- °F
--% Chance of Precip.
Yesterday
High -- | Low -- °F
Precip. -- in
6:33 AM 7:46 PM
Waning Gibbous, 95% visible
Pressure 30.02 in
Visibility 0.2 miles
Clouds Overcast 300 ft
Dew Point 62 °F
Humidity 98%
Rainfall 0.00 in
Snow Depth Not available.
UV 0.0 out of 12
Pollen 10.80 out of 12
Air Quality Not available.
Flu Activity Not available.
METAR KCCY 311155Z AUTO 16004KT M1/4SM FG OVC003 17/17 A3002 RMK AO2
Pressure 30.02 in
Visibility 0.2 miles
Clouds Overcast 300 ft
Dew Point 62 °F
Humidity 98%
Rainfall 0.00 in
Snow Depth Not available.
UV 0.0 out of 12
Pollen 10.80 out of 12
Air Quality Not available.
Flu Activity Not available.
METAR KCCY 311155Z AUTO 16004KT M1/4SM FG OVC003 17/17 A3002 RMK AO2

10-Day Weather Forecast

×

Almanac

Astronomy

Aug. 31, 2015 Rise Set
Actual Time
Civil Twilight
Nautical Twilight
Astronomical Twilight
Moon
Length of Visible Light
Length of Day
Tomorrow will be .
, % of the Moon is Illuminated

Today's Extremes

State Highs State Lows

Community

WunderPhotos

Upload Photos

1,851,222 photos uploaded!

WunderBlogs® & News

Nearby

Air Quality

  Air Quality AQ Index Pollutant
Not available.

Snow Depth

Station Depth Elevation

Earthquake Activity

City Distance Mag. Time & Date
Minimum magnitude displayed is 2.5.

Coastal Water Temperatures

Place Temperature

Stations

Nearby Weather Stations

Station Location Temp. Windchill Dew Point Humidity Wind Precip. Elev Updated Type
                   
Special Statement
Statement as of 3:21 AM CDT on August 31, 2015

... Areas of fog through the early morning hours...

Fog will be prevalent in many areas until around 900 am and may be
dense in spots... especially low lying areas. Visibilities may dip
to a quarter mile at times. Motorists are urged to slow
down... use low beam headlights and allow for extra stopping
distance between vehicles.


Small

321 am CDT Mon Aug 31 2015

... Areas of fog through the early morning hours...

Fog will be prevalent in many areas until around 900 am and may be
dense in spots... especially low lying areas. Visibilities may dip
to a quarter mile at times. Motorists are urged to slow
down... use low beam headlights and allow for extra stopping
distance between vehicles.


Small